Time;durP1;ratioP1;P1;durP2;ratioP2;P2;SDS_P1;SDS_P2;PMS_P1;PMS_P2;Temp;Humidity;BMP_temperature;BMP_pressure;BME280_temperature;BME280_humidity;BME280_pressure;Samples;Min_cycle;Max_cycle;Signal;HPM_P1;HPM_P2
2022/06/14 00:01:43;;;;;;;8.65;2.30;;;15.00;63.90;;;;;;2373474;56;21051;-72
2022/06/14 00:04:11;;;;;;;4.80;1.90;;;15.00;63.20;;;;;;2372976;56;21059;-73
2022/06/14 00:06:38;;;;;;;3.58;1.77;;;15.00;63.20;;;;;;2373483;56;21050;-72
2022/06/14 00:09:06;;;;;;;8.45;2.40;;;15.00;63.40;;;;;;2373191;56;22237;-74
2022/06/14 00:11:36;;;;;;;11.27;2.60;;;15.00;63.60;;;;;;2373454;56;21530;-73
2022/06/14 00:14:05;;;;;;;5.47;1.95;;;14.90;63.50;;;;;;2373832;56;21047;-73
2022/06/14 00:16:35;;;;;;;9.35;2.35;;;14.90;63.60;;;;;;2626183;52;21536;-72
2022/06/14 00:19:04;;;;;;;13.38;2.35;;;14.90;63.60;;;;;;2373673;56;21517;-73
2022/06/14 00:21:32;;;;;;;7.57;2.08;;;14.90;63.60;;;;;;2627079;52;21051;-73
2022/06/14 00:26:35;;;;;;;10.38;2.33;;;14.90;63.70;;;;;;2276802;58;28051;-73
2022/06/14 00:29:02;;;;;;;7.12;2.17;;;14.30;66.80;;;;;;2302100;58;21076;-72
2022/06/14 00:31:31;;;;;;;6.93;2.08;;;14.60;65.80;;;;;;2556502;54;21348;-73
2022/06/14 00:33:58;;;;;;;7.00;2.70;;;14.70;65.10;;;;;;2316240;58;21523;-73
2022/06/14 00:36:28;;;;;;;10.10;2.75;;;14.70;64.60;;;;;;2316555;58;21064;-76
2022/06/14 00:38:57;;;;;;;8.75;2.50;;;14.70;64.50;;;;;;2316382;58;21109;-74
2022/06/14 00:41:37;;;;;;;5.37;2.05;;;14.70;64.80;;;;;;2314535;58;21187;-74
2022/06/14 00:44:08;;;;;;;7.12;2.17;;;14.70;64.90;;;;;;2315266;58;21566;-76
2022/06/14 00:46:38;;;;;;;8.50;2.25;;;14.60;64.90;;;;;;2316197;58;21503;-73
2022/06/14 00:49:12;;;;;;;6.55;2.40;;;14.60;65.00;;;;;;2315604;58;21115;-73
2022/06/14 00:51:44;;;;;;;;;;;14.70;65.00;;;;;;2319215;58;21091;-73
2022/06/14 00:54:18;;;;;;;6.55;2.00;;;14.70;64.80;;;;;;2316036;58;20322;-73
2022/06/14 00:56:50;;;;;;;7.00;2.03;;;14.60;64.40;;;;;;2556589;54;21127;-73
2022/06/14 00:59:21;;;;;;;5.72;2.08;;;14.60;64.70;;;;;;2315541;58;21705;-74
2022/06/14 01:01:52;;;;;;;10.85;2.70;;;14.60;65.00;;;;;;2316069;58;21701;-73
2022/06/14 01:04:24;;;;;;;7.25;2.47;;;14.60;65.30;;;;;;2315662;58;21128;-73
2022/06/14 01:06:57;;;;;;;9.15;2.97;;;14.60;65.20;;;;;;2315469;58;21311;-75
2022/06/14 01:09:30;;;;;;;8.65;2.75;;;14.60;65.20;;;;;;2316541;58;21143;-73
2022/06/14 01:12:02;;;;;;;9.07;2.33;;;14.60;65.30;;;;;;2316277;58;21112;-73
2022/06/14 01:14:39;;;;;;;9.82;2.33;;;14.60;65.30;;;;;;2315940;58;21071;-73
2022/06/14 01:17:08;;;;;;;5.68;2.25;;;14.60;65.30;;;;;;2316835;58;21068;-73
2022/06/14 01:19:36;;;;;;;9.52;2.60;;;14.60;65.30;;;;;;2316695;58;21599;-75
2022/06/14 01:22:28;;;;;;;5.68;2.15;;;14.70;65.40;;;;;;2558652;54;21127;-74
2022/06/14 01:24:58;;;;;;;9.68;2.05;;;14.70;65.40;;;;;;2316935;58;21547;-73
2022/06/14 01:27:27;;;;;;;8.40;2.28;;;14.70;65.30;;;;;;2317507;58;21107;-72
2022/06/14 01:32:38;;;;;;;6.75;2.15;;;14.70;65.30;;;;;;2353558;57;22117;-72
2022/06/14 01:35:10;;;;;;;9.88;2.80;;;14.70;65.20;;;;;;2593734;52;21141;-74
2022/06/14 01:37:38;;;;;;;8.02;1.70;;;14.80;65.40;;;;;;2594980;53;21076;-72
2022/06/14 01:40:09;;;;;;;6.10;2.67;;;14.80;65.40;;;;;;2372116;56;21046;-74
2022/06/14 01:43:01;;;;;;;8.02;2.80;;;14.80;65.30;;;;;;2374043;56;21058;-72
2022/06/14 01:45:39;;;;;;;4.62;2.12;;;14.80;65.30;;;;;;2373782;56;21601;-75
2022/06/14 01:48:19;;;;;;;8.25;2.72;;;14.80;65.00;;;;;;2374841;56;21102;-73
2022/06/14 01:53:48;;;;;;;7.75;3.08;;;14.90;64.90;;;;;;2374873;56;21087;-72
2022/06/14 01:56:21;;;;;;;7.12;2.10;;;14.90;64.60;;;;;;2373426;56;21396;-72
2022/06/14 01:58:57;;;;;;;8.05;2.58;;;14.80;64.80;;;;;;2373188;56;21035;-72
2022/06/14 02:01:33;;;;;;;8.10;3.00;;;14.80;64.70;;;;;;2374832;56;21035;-72
2022/06/14 02:07:03;;;;;;;5.80;2.10;;;14.90;64.70;;;;;;2374532;56;21002;-72
2022/06/14 02:09:46;;;;;;;9.57;2.65;;;14.90;64.50;;;;;;2374023;56;21027;-73
2022/06/14 02:12:17;;;;;;;8.03;2.30;;;14.90;64.40;;;;;;2375257;56;21066;-72
2022/06/14 02:14:51;;;;;;;5.60;2.62;;;14.90;64.40;;;;;;2374496;56;21525;-72
2022/06/14 02:17:25;;;;;;;7.60;2.10;;;14.90;64.20;;;;;;2372756;56;21051;-72
2022/06/14 02:19:59;;;;;;;9.05;2.55;;;15.00;64.20;;;;;;2374639;56;21585;-72
2022/06/14 02:22:32;;;;;;;6.28;2.30;;;14.90;64.20;;;;;;2628030;52;21039;-72
2022/06/14 02:25:05;;;;;;;5.55;1.95;;;15.00;64.10;;;;;;2627376;52;21181;-72
2022/06/14 02:27:37;;;;;;;11.73;2.77;;;15.00;64.30;;;;;;2374070;56;21030;-74
2022/06/14 02:30:09;;;;;;;10.68;2.53;;;15.00;64.10;;;;;;2374015;56;21039;-73
2022/06/14 02:35:20;;;;;;;9.52;2.20;;;15.00;63.80;;;;;;2354142;57;22552;-74
2022/06/14 02:37:53;;;;;;;6.67;2.00;;;15.00;63.60;;;;;;2346701;57;21133;-72
2022/06/14 02:40:25;;;;;;;7.75;2.10;;;15.10;63.60;;;;;;2319538;58;21562;-73
2022/06/14 02:42:57;;;;;;;7.18;2.20;;;15.00;63.60;;;;;;2320424;58;21122;-73
2022/06/14 02:45:27;;;;;;;8.02;2.25;;;15.00;63.60;;;;;;2318843;58;21119;-72
2022/06/14 02:47:58;;;;;;;8.88;2.28;;;15.00;63.60;;;;;;2319939;58;21195;-74
2022/06/14 02:50:30;;;;;;;13.23;2.83;;;15.00;63.70;;;;;;2320116;58;21112;-72
2022/06/14 02:53:05;;;;;;;7.22;2.05;;;14.90;63.70;;;;;;2320819;58;22255;-72
2022/06/14 02:55:37;;;;;;;7.57;2.40;;;14.90;63.80;;;;;;2319177;58;21546;-73
2022/06/14 02:58:12;;;;;;;6.03;2.45;;;14.90;63.90;;;;;;2320235;58;21068;-72
2022/06/14 03:00:44;;;;;;;6.35;1.70;;;15.00;63.70;;;;;;2320537;58;21134;-74
2022/06/14 03:05:55;;;;;;;8.55;2.42;;;14.90;63.60;;;;;;2355090;57;22540;-73
2022/06/14 03:08:29;;;;;;;6.65;1.77;;;14.90;63.50;;;;;;2352583;56;21047;-72
2022/06/14 03:11:11;;;;;;;5.78;2.20;;;14.90;63.50;;;;;;2374753;56;21525;-73
2022/06/14 03:13:50;;;;;;;8.00;2.08;;;14.90;63.70;;;;;;2374528;56;21063;-73
2022/06/14 03:16:25;;;;;;;7.95;2.50;;;14.90;63.80;;;;;;2374307;56;22146;-73
2022/06/14 03:18:57;;;;;;;6.78;2.08;;;15.00;63.60;;;;;;2628228;52;21050;-73
2022/06/14 03:21:32;;;;;;;14.73;2.62;;;14.90;63.60;;;;;;2374663;56;21602;-74
2022/06/14 03:24:08;;;;;;;7.15;1.92;;;14.90;63.60;;;;;;2374220;56;21043;-72
2022/06/14 03:26:41;;;;;;;6.72;2.33;;;14.90;63.60;;;;;;2374712;56;21589;-72
2022/06/14 03:29:13;;;;;;;5.30;1.85;;;14.90;63.70;;;;;;2374375;56;21051;-73
2022/06/14 03:31:47;;;;;;;6.10;2.28;;;14.90;63.80;;;;;;2374547;56;21636;-73
2022/06/14 03:34:22;;;;;;;5.22;2.35;;;14.90;63.80;;;;;;2375321;56;21043;-75
2022/06/14 03:36:51;;;;;;;7.70;2.17;;;14.90;64.00;;;;;;2373538;56;21102;-73
2022/06/14 03:39:23;;;;;;;12.93;3.35;;;14.90;64.00;;;;;;2373658;56;21593;-73
2022/06/14 03:41:53;;;;;;;8.50;2.10;;;14.90;63.90;;;;;;2375217;56;21062;-72
2022/06/14 03:44:24;;;;;;;8.65;2.28;;;14.90;63.80;;;;;;2358730;56;21098;-78
2022/06/14 03:47:10;;;;;;;7.15;2.55;;;14.90;63.80;;;;;;2303368;58;21367;-77
2022/06/14 03:49:42;;;;;;;8.73;2.37;;;14.90;63.70;;;;;;2302264;58;21561;-77
2022/06/14 03:52:22;;;;;;;8.70;2.37;;;15.00;63.70;;;;;;2301344;58;21118;-77
2022/06/14 03:54:59;;;;;;;8.68;2.12;;;14.90;63.70;;;;;;2301265;58;21122;-78
2022/06/14 03:57:49;;;;;;;5.70;2.00;;;15.00;63.80;;;;;;2302075;58;21071;-77
2022/06/14 04:00:30;;;;;;;8.30;2.50;;;15.00;63.80;;;;;;2300276;58;21067;-77
2022/06/14 04:03:12;;;;;;;9.18;2.42;;;15.00;63.60;;;;;;2302996;58;21067;-77
2022/06/14 04:05:53;;;;;;;4.70;2.05;;;15.00;63.60;;;;;;2302045;58;21717;-76
2022/06/14 04:08:40;;;;;;;10.15;2.62;;;15.00;63.80;;;;;;2302051;58;21149;-77
2022/06/14 04:11:18;;;;;;;5.82;2.37;;;15.00;63.60;;;;;;2301815;58;21193;-78
2022/06/14 04:13:51;;;;;;;10.25;2.10;;;15.00;63.70;;;;;;2303206;58;21899;-77
2022/06/14 04:16:22;;;;;;;;;;;15.10;64.10;;;;;;2304822;58;21656;-77
2022/06/14 04:21:38;;;;;;;9.18;2.25;;;15.10;63.50;;;;;;2537111;53;22086;-77
2022/06/14 04:24:13;;;;;;;12.65;2.78;;;15.10;63.60;;;;;;2319063;58;21044;-77
2022/06/14 04:26:47;;;;;;;9.77;2.35;;;15.10;63.70;;;;;;2317788;58;21107;-77
2022/06/14 04:29:21;;;;;;;6.00;1.75;;;15.10;64.00;;;;;;2331730;57;21149;-76
2022/06/14 04:31:56;;;;;;;7.25;1.92;;;15.10;64.30;;;;;;2340852;57;21610;-77
2022/06/14 04:34:29;;;;;;;12.88;2.20;;;15.20;64.40;;;;;;2341036;57;21512;-76
2022/06/14 04:37:01;;;;;;;9.43;2.35;;;15.20;64.00;;;;;;2340756;57;21109;-77
2022/06/14 04:39:36;;;;;;;10.27;3.07;;;15.20;63.90;;;;;;2340997;57;21137;-77
2022/06/14 04:42:08;;;;;;;9.93;2.00;;;15.20;63.70;;;;;;2341155;57;21848;-77
2022/06/14 04:44:41;;;;;;;9.20;2.35;;;15.20;64.20;;;;;;2340880;57;21300;-77
2022/06/14 04:47:14;;;;;;;8.73;2.17;;;15.20;64.20;;;;;;2341631;57;21117;-77
2022/06/14 04:49:47;;;;;;;6.83;2.20;;;15.20;64.20;;;;;;2341266;57;21041;-77
2022/06/14 04:52:20;;;;;;;6.35;2.00;;;15.20;63.90;;;;;;2587736;53;21097;-77
2022/06/14 04:54:53;;;;;;;12.50;2.17;;;15.20;64.00;;;;;;2340448;57;21623;-77
2022/06/14 04:57:26;;;;;;;7.37;2.28;;;15.20;63.90;;;;;;2341504;57;21560;-77
2022/06/14 04:59:58;;;;;;;5.32;1.67;;;15.30;63.90;;;;;;2341168;57;21126;-77
2022/06/14 05:02:32;;;;;;;8.18;2.25;;;15.30;63.80;;;;;;2341512;57;21627;-77
2022/06/14 05:05:04;;;;;;;8.50;3.03;;;15.30;63.80;;;;;;2341711;57;21034;-77
2022/06/14 05:07:37;;;;;;;10.13;3.03;;;15.30;63.90;;;;;;2341625;57;21085;-77
2022/06/14 05:10:09;;;;;;;10.32;2.30;;;15.20;63.90;;;;;;2341417;57;21061;-77
2022/06/14 05:12:41;;;;;;;9.48;2.22;;;15.20;64.00;;;;;;2341495;57;21532;-77
2022/06/14 05:15:17;;;;;;;8.18;2.03;;;15.20;64.10;;;;;;2339914;57;21081;-78
2022/06/14 05:17:49;;;;;;;13.73;2.40;;;15.20;64.40;;;;;;2340732;57;21539;-77
2022/06/14 05:23:01;;;;;;;13.60;2.92;;;15.20;64.70;;;;;;2353193;57;22073;-77
2022/06/14 05:25:36;;;;;;;7.40;2.28;;;15.10;64.80;;;;;;2347208;57;21037;-78
2022/06/14 05:28:08;;;;;;;7.97;2.00;;;15.20;64.80;;;;;;2349965;56;21132;-78
2022/06/14 05:33:32;;;;;;;9.38;2.95;;;15.30;65.50;;;;;;2354970;57;22045;-76
2022/06/14 05:36:07;;;;;;;10.55;2.58;;;15.30;65.30;;;;;;2594687;53;21548;-77
2022/06/14 05:38:45;;;;;;;7.65;1.83;;;15.30;65.50;;;;;;2355888;56;21059;-77
2022/06/14 05:41:19;;;;;;;11.30;2.00;;;15.40;65.80;;;;;;2375472;56;21047;-77
2022/06/14 05:43:50;;;;;;;9.32;2.05;;;15.40;65.60;;;;;;2375627;56;21055;-77
2022/06/14 05:46:25;;;;;;;4.70;1.90;;;15.50;65.00;;;;;;2372879;56;21533;-78
2022/06/14 05:48:56;;;;;;;7.10;2.12;;;15.60;65.00;;;;;;2374372;56;21106;-78
2022/06/14 05:51:29;;;;;;;5.47;2.15;;;15.70;64.70;;;;;;2375019;56;21569;-78
2022/06/14 05:54:01;;;;;;;10.38;3.03;;;15.80;64.60;;;;;;2374599;56;21142;-77
2022/06/14 05:56:35;;;;;;;7.20;1.98;;;15.90;64.40;;;;;;2374388;56;21035;-77
2022/06/14 06:01:50;;;;;;;6.40;1.98;;;16.10;63.40;;;;;;2355710;57;22780;-77
2022/06/14 06:04:23;;;;;;;12.48;1.80;;;16.10;62.90;;;;;;2347575;57;21061;-77
2022/06/14 06:06:55;;;;;;;9.65;1.95;;;16.20;62.50;;;;;;2346607;57;21657;-77
2022/06/14 06:09:27;;;;;;;6.95;1.92;;;16.30;62.80;;;;;;2364611;56;21513;-76
2022/06/14 06:11:58;;;;;;;5.37;1.70;;;16.30;62.70;;;;;;2372663;56;21545;-76
2022/06/14 06:14:32;;;;;;;9.20;2.17;;;16.30;63.00;;;;;;2373650;56;21520;-77
2022/06/14 06:17:03;;;;;;;7.85;2.17;;;16.40;63.10;;;;;;2374109;56;21126;-77
2022/06/14 06:19:36;;;;;;;9.75;2.28;;;16.50;62.60;;;;;;2372552;56;21506;-77
2022/06/14 06:22:08;;;;;;;4.72;2.15;;;16.50;62.30;;;;;;2374907;56;21668;-77
2022/06/14 06:24:43;;;;;;;7.85;2.33;;;16.50;61.70;;;;;;2374556;56;21110;-77
2022/06/14 06:27:13;;;;;;;6.43;1.70;;;16.50;61.70;;;;;;2372278;56;21098;-76
2022/06/14 06:29:48;;;;;;;10.02;2.60;;;16.60;61.80;;;;;;2374247;56;21051;-77
2022/06/14 06:32:17;;;;;;;9.88;2.20;;;16.50;61.70;;;;;;2373864;56;21142;-77
2022/06/14 06:34:46;;;;;;;3.25;1.73;;;16.50;61.60;;;;;;2627853;52;21613;-76
2022/06/14 06:37:17;;;;;;;6.28;1.92;;;16.40;61.80;;;;;;2374455;56;21639;-76
2022/06/14 06:39:50;;;;;;;11.30;2.47;;;16.50;62.60;;;;;;2372973;56;21059;-76
2022/06/14 06:42:25;;;;;;;13.07;2.08;;;16.40;62.40;;;;;;2375467;56;21102;-76
2022/06/14 06:44:58;;;;;;;11.80;2.40;;;16.50;62.60;;;;;;2374324;56;21526;-76
2022/06/14 06:47:30;;;;;;;7.93;2.08;;;16.40;62.40;;;;;;2375098;56;21526;-77
2022/06/14 06:50:19;;;;;;;9.87;2.53;;;16.40;62.90;;;;;;2628880;52;21110;-77
2022/06/14 06:52:57;;;;;;;11.12;2.05;;;16.50;63.40;;;;;;2375051;56;21031;-76
2022/06/14 06:55:36;;;;;;;9.73;2.53;;;16.50;63.20;;;;;;2374833;56;22109;-76
2022/06/14 06:58:09;;;;;;;9.75;2.40;;;16.50;62.30;;;;;;2375272;56;21070;-76
2022/06/14 07:00:39;;;;;;;8.40;2.35;;;16.60;62.40;;;;;;2373526;56;21624;-76
2022/06/14 07:03:14;;;;;;;8.20;2.10;;;16.60;62.60;;;;;;2374910;56;21513;-77
2022/06/14 07:05:42;;;;;;;9.20;2.40;;;16.60;63.20;;;;;;2374776;56;21525;-76
2022/06/14 07:08:16;;;;;;;7.93;2.30;;;16.70;63.10;;;;;;2374055;56;21648;-76
2022/06/14 07:10:50;;;;;;;11.98;2.72;;;16.70;62.60;;;;;;2373999;56;21062;-77
2022/06/14 07:13:23;;;;;;;13.55;2.97;;;16.80;62.00;;;;;;2374359;56;21039;-77
2022/06/14 07:15:55;;;;;;;9.23;2.35;;;16.90;61.60;;;;;;2373764;56;21043;-77
2022/06/14 07:18:27;;;;;;;10.68;2.50;;;16.90;61.40;;;;;;2373973;56;21557;-77
2022/06/14 07:21:01;;;;;;;6.60;2.40;;;17.00;61.30;;;;;;2374068;56;21054;-77
2022/06/14 07:23:42;;;;;;;8.63;2.25;;;17.00;60.60;;;;;;2373849;56;21047;-77
2022/06/14 07:26:16;;;;;;;9.38;2.00;;;17.10;60.20;;;;;;2373453;56;21557;-77
2022/06/14 07:28:52;;;;;;;7.20;1.55;;;17.10;60.60;;;;;;2372438;56;21511;-77
2022/06/14 07:31:29;;;;;;;9.48;2.20;;;17.10;60.00;;;;;;2373420;56;21035;-76
2022/06/14 07:33:58;;;;;;;7.28;2.20;;;17.20;59.50;;;;;;2373793;56;21589;-77
2022/06/14 07:36:32;;;;;;;6.75;2.00;;;17.20;59.60;;;;;;2373639;56;21589;-77
2022/06/14 07:39:07;;;;;;;6.90;1.83;;;17.20;59.80;;;;;;2372223;56;21043;-77
2022/06/14 07:41:43;;;;;;;5.20;1.83;;;17.30;60.10;;;;;;2370856;56;21593;-77
2022/06/14 07:44:19;;;;;;;8.48;2.15;;;17.30;59.50;;;;;;2370749;56;21043;-77
2022/06/14 07:46:58;;;;;;;11.68;2.10;;;17.40;59.30;;;;;;2370811;56;21042;-76
2022/06/14 07:49:34;;;;;;;7.53;2.00;;;17.40;59.10;;;;;;2370832;56;21011;-76
2022/06/14 07:52:08;;;;;;;11.02;2.33;;;17.50;59.20;;;;;;2369272;56;21113;-76
2022/06/14 07:54:41;;;;;;;12.32;2.83;;;17.50;58.90;;;;;;2622068;52;21125;-76
2022/06/14 07:57:11;;;;;;;9.13;2.20;;;17.50;58.50;;;;;;2620473;52;22069;-77
2022/06/14 07:59:43;;;;;;;10.13;2.00;;;17.60;58.30;;;;;;2371343;56;21702;-76
2022/06/14 08:02:19;;;;;;;6.85;2.03;;;17.70;58.20;;;;;;2625281;52;21031;-77
2022/06/14 08:04:54;;;;;;;12.00;3.22;;;17.80;58.20;;;;;;2371940;56;21043;-76
2022/06/14 08:07:22;;;;;;;12.13;2.30;;;17.80;58.00;;;;;;2372205;56;21106;-77
2022/06/14 08:09:58;;;;;;;12.70;2.80;;;17.90;57.50;;;;;;2371418;56;21545;-77
2022/06/14 08:12:36;;;;;;;13.43;2.58;;;17.90;57.30;;;;;;2372684;56;21427;-77
2022/06/14 08:15:11;;;;;;;5.85;1.80;;;17.90;57.50;;;;;;2367480;56;21157;-76
2022/06/14 08:17:44;;;;;;;21.67;2.58;;;17.80;57.30;;;;;;2371485;56;21553;-76
2022/06/14 08:20:22;;;;;;;12.15;2.62;;;17.80;57.40;;;;;;2372201;56;21506;-76
2022/06/14 08:22:53;;;;;;;10.73;2.62;;;17.90;57.50;;;;;;2373367;56;21019;-77
2022/06/14 08:25:24;;;;;;;10.65;2.28;;;17.90;57.10;;;;;;2372796;56;21063;-76
2022/06/14 08:27:58;;;;;;;11.27;2.30;;;17.90;57.00;;;;;;2373275;56;21513;-76
2022/06/14 08:30:30;;;;;;;5.22;1.65;;;17.90;56.20;;;;;;2371882;56;21522;-76
2022/06/14 08:33:04;;;;;;;7.47;2.00;;;17.90;56.40;;;;;;2373256;56;21530;-76
2022/06/14 08:35:36;;;;;;;8.93;1.87;;;17.90;56.00;;;;;;2371876;56;21036;-76
2022/06/14 08:38:11;;;;;;;10.77;2.17;;;17.90;56.40;;;;;;2372344;56;21103;-76
2022/06/14 08:40:50;;;;;;;12.52;2.22;;;17.80;56.00;;;;;;2372658;56;21031;-77
2022/06/14 08:43:24;;;;;;;6.50;2.17;;;17.80;56.00;;;;;;2372200;56;21031;-77
2022/06/14 08:46:14;;;;;;;7.80;1.95;;;17.80;55.70;;;;;;2373679;56;21103;-76
2022/06/14 08:48:43;;;;;;;6.28;2.10;;;17.80;55.40;;;;;;2373148;56;21573;-77
2022/06/14 08:51:25;;;;;;;10.68;2.97;;;17.70;55.50;;;;;;2373556;56;21030;-76
2022/06/14 08:54:22;;;;;;;9.27;2.67;;;17.80;55.60;;;;;;2373959;56;21047;-76
2022/06/14 08:57:15;;;;;;;4.68;1.65;;;17.80;55.90;;;;;;2373219;56;21106;-77
2022/06/14 09:03:29;;;;;;;5.07;1.50;;;18.00;55.60;;;;;;2604395;53;22094;-77
2022/06/14 09:09:48;;;;;;;6.78;1.55;;;18.10;55.80;;;;;;2341360;57;22036;-78
2022/06/14 09:12:41;;;;;;;8.85;2.40;;;18.10;55.80;;;;;;2594495;52;21118;-77
2022/06/14 09:16:04;;;;;;;7.12;2.10;;;18.10;56.40;;;;;;2345442;57;21167;-77
2022/06/14 09:21:26;;;;;;;7.28;2.25;;;18.10;55.80;;;;;;2327812;57;22111;-77
2022/06/14 09:24:11;;;;;;;7.12;1.90;;;18.10;55.10;;;;;;2346428;57;21160;-77
2022/06/14 09:26:49;;;;;;;8.02;1.92;;;18.10;55.50;;;;;;2346393;57;21152;-77
2022/06/14 09:30:10;;;;;;;9.32;1.75;;;18.20;55.20;;;;;;2362422;56;21042;-77
2022/06/14 09:33:34;;;;;;;8.77;2.15;;;18.30;55.80;;;;;;2343242;56;21531;-77
2022/06/14 09:36:26;;;;;;;7.87;2.03;;;18.40;55.20;;;;;;2303462;56;21100;-77
2022/06/14 09:39:16;;;;;;;5.45;1.60;;;18.50;55.00;;;;;;2372157;56;21038;-77
2022/06/14 09:42:14;;;;;;;9.27;1.95;;;18.50;54.60;;;;;;2373048;56;21510;-77
2022/06/14 09:45:32;;;;;;;9.00;2.03;;;18.60;54.70;;;;;;2326962;55;21041;-73
2022/06/14 09:48:30;;;;;;;10.70;2.33;;;18.70;54.60;;;;;;2260140;59;21140;-74
2022/06/14 09:51:29;;;;;;;7.03;2.08;;;18.80;54.80;;;;;;2281231;59;21043;-76
2022/06/14 09:54:34;;;;;;;9.90;1.87;;;18.90;54.80;;;;;;2515046;55;21613;-75
2022/06/14 09:57:30;;;;;;;5.72;1.67;;;19.00;54.80;;;;;;2253168;59;21553;-74
2022/06/14 10:00:24;;;;;;;7.07;1.30;;;19.20;54.30;;;;;;2282145;59;21154;-75
2022/06/14 10:03:23;;;;;;;3.92;1.27;;;19.30;53.20;;;;;;2280906;59;21074;-74
2022/06/14 10:06:21;;;;;;;9.32;2.30;;;19.30;52.60;;;;;;2278886;59;21085;-75
2022/06/14 10:09:13;;;;;;;8.25;2.25;;;19.30;51.70;;;;;;2514437;55;22103;-74
2022/06/14 10:11:56;;;;;;;6.85;2.22;;;19.30;51.70;;;;;;2282964;59;21114;-74
2022/06/14 10:14:37;;;;;;;6.50;2.43;;;19.30;51.90;;;;;;2283075;59;21055;-75
2022/06/14 10:17:30;;;;;;;5.72;1.80;;;19.30;52.30;;;;;;2282468;59;21722;-74
2022/06/14 10:20:18;;;;;;;5.97;1.77;;;19.40;51.60;;;;;;2514676;54;21392;-75
2022/06/14 10:23:00;;;;;;;5.10;1.77;;;19.40;52.30;;;;;;2281774;59;21394;-74
2022/06/14 10:25:36;;;;;;;7.05;2.58;;;19.50;52.10;;;;;;2281525;59;21217;-76
2022/06/14 10:28:14;;;;;;;6.18;1.80;;;19.60;51.30;;;;;;2281859;59;21142;-73
2022/06/14 10:33:45;;;;;;;5.55;1.58;;;19.70;50.90;;;;;;2382864;56;22100;-75
2022/06/14 10:36:43;;;;;;;3.70;1.42;;;19.80;51.30;;;;;;2345154;57;21559;-75
2022/06/14 10:42:39;;;;;;;6.40;1.52;;;19.90;50.70;;;;;;2298065;58;22098;-74
2022/06/14 10:45:14;;;;;;;4.28;1.40;;;19.90;50.50;;;;;;2316570;58;21052;-75
2022/06/14 10:48:01;;;;;;;5.12;1.70;;;20.00;51.20;;;;;;2315984;58;21111;-74
2022/06/14 10:50:58;;;;;;;2.15;1.30;;;20.00;50.70;;;;;;2289815;58;21613;-74
2022/06/14 10:53:39;;;;;;;6.82;2.03;;;20.10;49.60;;;;;;2289459;58;21620;-75
2022/06/14 10:56:23;;;;;;;2.83;1.00;;;20.10;49.80;;;;;;2523871;55;21114;-74
2022/06/14 10:59:14;;;;;;;4.70;1.30;;;20.20;50.30;;;;;;2289157;58;22223;-73
2022/06/14 11:01:51;;;;;;;5.28;1.65;;;20.30;49.40;;;;;;2289505;58;21054;-74
2022/06/14 11:04:27;;;;;;;4.68;1.70;;;20.20;48.90;;;;;;2289655;58;21660;-75
2022/06/14 11:07:24;;;;;;;4.05;1.42;;;20.30;49.50;;;;;;2289456;58;21372;-75
2022/06/14 11:10:11;;;;;;;6.03;1.33;;;20.40;50.40;;;;;;2288223;58;21130;-75
2022/06/14 11:12:52;;;;;;;9.32;1.40;;;20.50;50.20;;;;;;2288236;58;21680;-77
2022/06/14 11:18:35;;;;;;;5.28;1.73;;;20.50;50.20;;;;;;2327282;57;22072;-74
2022/06/14 11:21:18;;;;;;;3.78;1.12;;;20.60;49.90;;;;;;2316916;58;21043;-75
2022/06/14 11:23:53;;;;;;;6.57;1.55;;;20.60;49.90;;;;;;2317749;58;21107;-76
2022/06/14 11:26:28;;;;;;;8.00;1.55;;;20.60;49.80;;;;;;2316275;58;21573;-74
2022/06/14 11:29:07;;;;;;;5.30;1.55;;;20.60;49.40;;;;;;2559259;54;21534;-77
2022/06/14 11:31:48;;;;;;;4.68;1.27;;;20.60;48.60;;;;;;2558686;53;21119;-74
2022/06/14 11:34:34;;;;;;;4.90;1.48;;;20.60;49.10;;;;;;2315737;58;21072;-76
2022/06/14 11:37:36;;;;;;;3.80;1.50;;;20.60;49.70;;;;;;2317031;58;22090;-75
2022/06/14 11:40:09;;;;;;;6.12;1.73;;;20.60;49.40;;;;;;2315876;57;21052;-75
2022/06/14 11:42:50;;;;;;;6.68;1.42;;;20.70;49.60;;;;;;2316153;58;21073;-75
2022/06/14 11:45:30;;;;;;;6.60;1.65;;;20.70;49.60;;;;;;2317488;58;21188;-74
2022/06/14 11:48:10;;;;;;;7.82;1.77;;;20.70;48.90;;;;;;2317831;58;21728;-74
2022/06/14 11:50:45;;;;;;;4.00;1.45;;;20.70;48.70;;;;;;2318499;58;21550;-75
2022/06/14 11:53:40;;;;;;;4.37;1.40;;;20.70;49.30;;;;;;2317964;58;21052;-76
2022/06/14 11:56:14;;;;;;;2.53;0.90;;;20.60;48.90;;;;;;2316176;58;21116;-74
2022/06/14 11:59:03;;;;;;;2.95;1.48;;;20.60;49.00;;;;;;2315546;58;21064;-77
2022/06/14 12:01:41;;;;;;;5.37;1.50;;;20.60;48.90;;;;;;2558256;54;21123;-74
2022/06/14 12:04:24;;;;;;;3.47;1.25;;;20.60;49.30;;;;;;2316456;58;21127;-74
2022/06/14 12:06:59;;;;;;;6.12;1.60;;;20.60;49.20;;;;;;2557963;53;21048;-75
2022/06/14 12:09:59;;;;;;;5.25;1.27;;;20.70;49.40;;;;;;2317854;58;21103;-75
2022/06/14 12:12:34;;;;;;;5.60;1.40;;;20.80;49.20;;;;;;2316881;58;21072;-74
2022/06/14 12:15:06;;;;;;;4.22;1.12;;;20.90;49.30;;;;;;2317861;58;21622;-76
2022/06/14 12:17:41;;;;;;;4.17;1.17;;;20.90;48.70;;;;;;2317811;58;21115;-74
2022/06/14 12:20:12;;;;;;;2.22;1.27;;;21.00;48.50;;;;;;2316148;58;21516;-75
2022/06/14 12:22:51;;;;;;;3.87;1.40;;;21.00;48.00;;;;;;2317181;58;21445;-75
2022/06/14 12:28:24;;;;;;;7.55;1.25;;;21.00;48.10;;;;;;2557560;53;20987;-75
2022/06/14 12:30:55;;;;;;;3.05;1.20;;;21.10;48.20;;;;;;2317319;58;22059;-76
2022/06/14 12:33:30;;;;;;;4.93;1.30;;;21.10;48.40;;;;;;2315378;58;22033;-74
2022/06/14 12:36:09;;;;;;;4.30;0.95;;;21.10;48.00;;;;;;2315451;58;21052;-74
2022/06/14 12:38:40;;;;;;;1.73;0.85;;;21.20;48.00;;;;;;2315683;58;21534;-74
2022/06/14 12:41:18;;;;;;;4.30;1.20;;;21.10;47.10;;;;;;2315348;58;21720;-76
2022/06/14 12:43:58;;;;;;;2.80;1.10;;;21.10;46.70;;;;;;2316815;58;21561;-74
2022/06/14 12:46:31;;;;;;;3.78;1.35;;;21.10;47.10;;;;;;2316363;58;21059;-74
2022/06/14 12:49:07;;;;;;;3.95;1.15;;;21.10;47.50;;;;;;2317341;58;21048;-74
2022/06/14 12:51:43;;;;;;;2.35;1.23;;;21.10;47.60;;;;;;2316575;58;21131;-75
2022/06/14 12:54:25;;;;;;;2.75;1.40;;;21.10;48.10;;;;;;2317283;58;21150;-77
2022/06/14 12:56:59;;;;;;;5.75;1.40;;;21.10;49.20;;;;;;2316345;58;21044;-75
2022/06/14 12:59:35;;;;;;;6.60;1.20;;;21.10;48.30;;;;;;2316832;58;21115;-74
2022/06/14 13:02:12;;;;;;;4.35;1.55;;;21.10;48.20;;;;;;2315989;58;21040;-74
2022/06/14 13:04:44;;;;;;;2.53;1.17;;;21.20;48.90;;;;;;2317283;58;21314;-77
2022/06/14 13:10:34;;;;;;;3.37;1.17;;;21.20;48.30;;;;;;2354356;57;22070;-74
2022/06/14 13:13:26;;;;;;;3.45;1.10;;;21.10;48.90;;;;;;2345721;57;21077;-77
2022/06/14 13:16:01;;;;;;;3.05;1.20;;;21.20;49.20;;;;;;2345264;57;21544;-74
2022/06/14 13:18:42;;;;;;;5.07;1.30;;;21.30;49.10;;;;;;2348168;56;21039;-75
2022/06/14 13:21:20;;;;;;;2.55;1.17;;;21.40;49.20;;;;;;2372991;56;21521;-74
2022/06/14 13:23:56;;;;;;;3.00;1.00;;;21.50;48.30;;;;;;2373533;56;21051;-74
2022/06/14 13:26:53;;;;;;;2.97;1.20;;;21.50;47.80;;;;;;2626458;52;21569;-75
2022/06/14 13:29:33;;;;;;;3.30;1.00;;;21.60;47.20;;;;;;2373397;56;21552;-75
2022/06/14 13:32:32;;;;;;;2.20;1.08;;;21.60;48.10;;;;;;2373366;56;21130;-75
2022/06/14 13:35:28;;;;;;;1.98;0.95;;;21.60;48.60;;;;;;2311883;56;21194;-74
2022/06/14 13:38:03;;;;;;;3.08;1.00;;;21.60;48.00;;;;;;2353509;56;21118;-75
2022/06/14 13:40:38;;;;;;;5.93;1.15;;;21.60;47.40;;;;;;2373627;56;21506;-77
2022/06/14 13:43:18;;;;;;;3.12;1.15;;;21.70;47.90;;;;;;2373530;56;21121;-75
2022/06/14 13:45:54;;;;;;;3.53;1.08;;;21.70;47.50;;;;;;2373216;56;21056;-75
2022/06/14 13:48:25;;;;;;;3.60;1.00;;;21.60;46.70;;;;;;2626981;52;21043;-75
2022/06/14 13:50:56;;;;;;;4.00;1.45;;;21.50;47.10;;;;;;2372089;56;21647;-74
2022/06/14 13:53:28;;;;;;;6.50;1.12;;;21.50;47.50;;;;;;2372927;56;21058;-74
2022/06/14 13:56:04;;;;;;;3.60;1.20;;;21.50;47.30;;;;;;2373150;56;21059;-74
2022/06/14 13:58:39;;;;;;;3.53;1.00;;;21.40;47.30;;;;;;2626937;52;21099;-73
2022/06/14 14:01:14;;;;;;;2.50;0.82;;;21.40;47.00;;;;;;2373733;56;21046;-74
2022/06/14 14:03:47;;;;;;;3.90;1.25;;;21.40;46.90;;;;;;2626667;52;21114;-75
2022/06/14 14:06:17;;;;;;;;;;;21.40;46.80;;;;;;2630319;52;21147;-76
2022/06/14 14:11:47;;;;;;;2.92;1.45;;;21.50;47.30;;;;;;2326367;57;22083;-74
2022/06/14 14:14:32;;;;;;;3.20;1.08;;;21.50;47.20;;;;;;2346198;57;21137;-76
2022/06/14 14:17:12;;;;;;;4.82;1.98;;;21.50;46.70;;;;;;2592699;53;21596;-74
2022/06/14 14:19:50;;;;;;;2.95;1.00;;;21.50;46.70;;;;;;2366080;56;21062;-75
2022/06/14 14:22:23;;;;;;;7.32;1.23;;;21.40;46.70;;;;;;2373418;56;21099;-75
2022/06/14 14:24:55;;;;;;;4.62;1.20;;;21.40;46.80;;;;;;2373508;56;21114;-75
2022/06/14 14:27:30;;;;;;;3.17;1.63;;;21.40;47.80;;;;;;2624878;52;21039;-76
2022/06/14 14:30:04;;;;;;;2.70;1.30;;;21.50;47.40;;;;;;2373492;56;21406;-74
2022/06/14 14:32:41;;;;;;;6.25;1.00;;;21.40;46.90;;;;;;2373551;56;21079;-74